Time;durP1;ratioP1;P1;durP2;ratioP2;P2;SDS_P1;SDS_P2;PMS_P1;PMS_P2;Temp;Humidity;BMP_temperature;BMP_pressure;BME280_temperature;BME280_humidity;BME280_pressure;Samples;Min_cycle;Max_cycle;Signal;HPM_P1;HPM_P2
2020/12/06 00:01:40;;;;;;;0.43;0.43;;;14.50;79.80;;;;;;4231873;28;20579;-39
2020/12/06 00:04:09;;;;;;;0.00;0.00;;;14.50;79.90;;;;;;4215046;28;20130;-40
2020/12/06 00:06:30;;;;;;;0.43;0.43;;;14.50;79.90;;;;;;4230361;28;20135;-40
2020/12/06 00:08:52;;;;;;;0.00;0.00;;;14.50;79.90;;;;;;4232504;28;20097;-40
2020/12/06 00:11:15;;;;;;;0.20;0.20;;;14.50;80.00;;;;;;4231583;28;20415;-40
2020/12/06 00:13:35;;;;;;;0.13;0.13;;;14.40;80.00;;;;;;4231820;28;20105;-41
2020/12/06 00:15:56;;;;;;;0.10;0.10;;;14.40;80.00;;;;;;4232119;28;20466;-40
2020/12/06 00:18:18;;;;;;;0.45;0.45;;;14.40;80.20;;;;;;4231966;28;20113;-46
2020/12/06 00:20:39;;;;;;;0.40;0.40;;;14.40;80.20;;;;;;4231461;28;20051;-42
2020/12/06 00:23:00;;;;;;;0.10;0.10;;;14.40;80.30;;;;;;4231997;28;20052;-45
2020/12/06 00:25:23;;;;;;;0.00;0.00;;;14.40;80.30;;;;;;4231884;28;20146;-43
2020/12/06 00:27:44;;;;;;;0.98;0.98;;;14.40;80.40;;;;;;4231578;28;20055;-39
2020/12/06 00:30:06;;;;;;;0.10;0.10;;;14.40;80.50;;;;;;4231352;28;20071;-41
2020/12/06 00:32:27;;;;;;;0.95;0.95;;;14.40;80.50;;;;;;4231671;28;20105;-40
2020/12/06 00:34:49;;;;;;;0.55;0.55;;;14.30;80.50;;;;;;4231624;28;20083;-40
2020/12/06 00:37:10;;;;;;;0.40;0.40;;;14.30;80.60;;;;;;4231259;28;20063;-40
2020/12/06 00:39:31;;;;;;;7.53;0.63;;;14.30;80.60;;;;;;4231450;28;20059;-40
2020/12/06 00:41:52;;;;;;;0.38;0.38;;;14.30;80.80;;;;;;4214503;28;20052;-40
2020/12/06 00:44:12;;;;;;;0.10;0.10;;;14.30;80.80;;;;;;4199567;28;20049;-40
2020/12/06 00:46:34;;;;;;;0.82;0.82;;;14.30;80.80;;;;;;4214739;28;20055;-40
2020/12/06 00:48:55;;;;;;;0.00;0.00;;;14.30;80.80;;;;;;4214468;28;20491;-39
2020/12/06 00:51:19;;;;;;;0.03;0.03;;;14.20;80.80;;;;;;4228999;28;20047;-40
2020/12/06 00:53:42;;;;;;;0.00;0.00;;;14.30;80.90;;;;;;4216164;28;20103;-40
2020/12/06 00:56:03;;;;;;;0.82;0.65;;;14.20;80.90;;;;;;4215241;28;20546;-40
2020/12/06 00:58:27;;;;;;;0.10;0.10;;;14.20;80.90;;;;;;4215733;28;20090;-40
2020/12/06 01:00:48;;;;;;;1.05;1.05;;;14.20;81.10;;;;;;4231281;28;20052;-40
2020/12/06 01:03:09;;;;;;;0.20;0.20;;;14.10;81.10;;;;;;4230867;28;20104;-40
2020/12/06 01:05:29;;;;;;;0.47;0.47;;;14.20;81.20;;;;;;4230897;28;20129;-39
2020/12/06 01:07:51;;;;;;;0.22;0.22;;;14.20;81.30;;;;;;4231399;28;20095;-40
2020/12/06 01:10:13;;;;;;;0.68;0.68;;;14.10;81.20;;;;;;4230836;28;20058;-40
2020/12/06 01:12:35;;;;;;;0.85;0.85;;;14.10;81.30;;;;;;4230963;28;20043;-40
2020/12/06 01:14:57;;;;;;;0.15;0.15;;;14.10;81.30;;;;;;4231199;28;20465;-40
2020/12/06 01:17:18;;;;;;;3.10;0.90;;;14.10;81.30;;;;;;4231369;28;20055;-40
2020/12/06 01:19:39;;;;;;;0.00;0.00;;;14.10;81.30;;;;;;4231147;28;20055;-40
2020/12/06 01:22:03;;;;;;;0.00;0.00;;;14.10;81.30;;;;;;4231201;28;20172;-40
2020/12/06 01:24:25;;;;;;;0.20;0.20;;;14.10;81.40;;;;;;4231331;28;20060;-40
2020/12/06 01:26:46;;;;;;;0.85;0.57;;;14.10;81.30;;;;;;4231364;28;20078;-40
2020/12/06 01:29:10;;;;;;;0.52;0.47;;;14.00;81.40;;;;;;4230714;28;20071;-40
2020/12/06 01:31:31;;;;;;;0.40;0.40;;;14.10;81.40;;;;;;4230447;28;20062;-40
2020/12/06 01:33:51;;;;;;;1.55;1.23;;;14.00;81.40;;;;;;4215080;28;20060;-40
2020/12/06 01:36:13;;;;;;;0.25;0.25;;;14.00;81.50;;;;;;4230416;28;20052;-40
2020/12/06 01:38:36;;;;;;;0.40;0.40;;;14.00;81.60;;;;;;4230990;28;20102;-40
2020/12/06 01:40:57;;;;;;;1.58;0.57;;;13.90;81.60;;;;;;4230750;28;20048;-40
2020/12/06 01:43:19;;;;;;;0.30;0.30;;;13.90;81.60;;;;;;4231024;28;20047;-40
2020/12/06 01:45:40;;;;;;;0.00;0.00;;;13.90;81.70;;;;;;4230998;28;20117;-40
2020/12/06 01:48:01;;;;;;;0.35;0.35;;;13.90;81.80;;;;;;4230497;28;20056;-40
2020/12/06 01:50:23;;;;;;;;;;;13.90;81.80;;;;;;4230516;28;20047;-40
2020/12/06 01:52:44;;;;;;;0.00;0.00;;;13.90;81.90;;;;;;4230313;28;19962;-40
2020/12/06 01:55:11;;;;;;;0.20;0.20;;;13.90;81.90;;;;;;4230092;28;20047;-42
2020/12/06 01:57:33;;;;;;;0.05;0.05;;;13.90;81.90;;;;;;4230163;28;20108;-40
2020/12/06 01:59:57;;;;;;;2.00;0.80;;;13.90;82.00;;;;;;4229844;28;20105;-40
2020/12/06 02:02:18;;;;;;;3.80;2.53;;;13.90;82.00;;;;;;4230275;28;20484;-40
2020/12/06 02:04:40;;;;;;;1.65;0.50;;;13.80;82.00;;;;;;4230164;28;20054;-40
2020/12/06 02:07:02;;;;;;;0.10;0.10;;;13.80;82.00;;;;;;4230326;28;20050;-40
2020/12/06 02:09:24;;;;;;;0.38;0.38;;;13.80;82.00;;;;;;4230159;28;20051;-40
2020/12/06 02:11:45;;;;;;;0.80;0.52;;;13.80;82.10;;;;;;4230186;28;20048;-40
2020/12/06 02:14:10;;;;;;;0.10;0.10;;;13.80;82.20;;;;;;4230555;28;20047;-42
2020/12/06 02:16:32;;;;;;;0.80;0.80;;;13.80;82.10;;;;;;4213479;28;20055;-42
2020/12/06 02:18:53;;;;;;;0.10;0.10;;;14.00;81.70;;;;;;4213605;28;20498;-41
2020/12/06 02:21:15;;;;;;;0.30;0.30;;;14.20;80.90;;;;;;4212903;28;20481;-40
2020/12/06 02:23:36;;;;;;;0.08;0.08;;;14.30;80.10;;;;;;4213469;28;20575;-40
2020/12/06 02:25:59;;;;;;;0.10;0.10;;;14.40;79.60;;;;;;4226138;28;20884;-40
2020/12/06 02:28:20;;;;;;;0.00;0.00;;;14.40;79.10;;;;;;4230174;28;20056;-40
2020/12/06 02:30:41;;;;;;;0.00;0.00;;;14.40;79.00;;;;;;4230123;28;20418;-40
2020/12/06 02:33:03;;;;;;;0.00;0.00;;;14.40;79.00;;;;;;4229544;28;20052;-40
2020/12/06 02:35:24;;;;;;;0.03;0.03;;;14.40;79.00;;;;;;4229035;28;20055;-41
2020/12/06 02:37:46;;;;;;;0.00;0.00;;;14.30;79.10;;;;;;4229643;28;20517;-41
2020/12/06 02:40:08;;;;;;;0.10;0.10;;;14.30;79.30;;;;;;4229455;28;20109;-40
2020/12/06 02:42:28;;;;;;;2.50;0.73;;;14.20;79.50;;;;;;4229734;28;20047;-40
2020/12/06 02:44:51;;;;;;;0.10;0.10;;;14.10;79.60;;;;;;4229606;28;20121;-40
2020/12/06 02:47:12;;;;;;;0.75;0.73;;;14.00;79.90;;;;;;4229385;28;20502;-40
2020/12/06 02:49:33;;;;;;;0.10;0.10;;;14.00;80.30;;;;;;4229369;28;20421;-40
2020/12/06 02:51:54;;;;;;;0.40;0.40;;;13.90;80.50;;;;;;4229502;28;20044;-40
2020/12/06 02:54:15;;;;;;;0.08;0.08;;;14.00;80.90;;;;;;4229193;28;20481;-40
2020/12/06 02:56:38;;;;;;;0.63;0.63;;;14.20;79.90;;;;;;4229876;28;20055;-40
2020/12/06 02:58:59;;;;;;;0.47;0.47;;;14.40;79.10;;;;;;4229239;28;20044;-40
2020/12/06 03:01:20;;;;;;;0.00;0.00;;;14.50;78.30;;;;;;4229216;28;20101;-40
2020/12/06 03:03:41;;;;;;;0.00;0.00;;;14.60;77.70;;;;;;4228531;28;20516;-40
2020/12/06 03:06:05;;;;;;;1.38;1.27;;;14.60;77.30;;;;;;4229126;28;20435;-39
2020/12/06 03:08:29;;;;;;;0.00;0.00;;;14.60;77.30;;;;;;4229319;28;20502;-40
2020/12/06 03:10:50;;;;;;;1.58;1.48;;;14.60;77.30;;;;;;4229451;28;20054;-40
2020/12/06 03:13:11;;;;;;;0.38;0.38;;;14.60;77.30;;;;;;4229514;28;20554;-40
2020/12/06 03:15:32;;;;;;;0.45;0.45;;;14.60;77.30;;;;;;4228876;28;20047;-40
2020/12/06 03:17:53;;;;;;;0.63;0.63;;;14.70;76.90;;;;;;4229309;28;20687;-40
2020/12/06 03:20:14;;;;;;;0.32;0.20;;;14.80;77.60;;;;;;4228376;28;20489;-40
2020/12/06 03:22:35;;;;;;;0.38;0.38;;;14.90;76.20;;;;;;4229050;28;20511;-40
2020/12/06 03:24:56;;;;;;;2.83;1.02;;;14.90;75.90;;;;;;4228851;28;20055;-40
2020/12/06 03:27:18;;;;;;;0.00;0.00;;;15.00;75.50;;;;;;4229674;28;20044;-40
2020/12/06 03:29:39;;;;;;;0.00;0.00;;;15.10;75.10;;;;;;4229541;28;20043;-40
2020/12/06 03:32:00;;;;;;;1.33;1.15;;;15.10;74.80;;;;;;4228749;28;20122;-40
2020/12/06 03:34:21;;;;;;;0.10;0.10;;;15.20;74.50;;;;;;4228687;28;20052;-40
2020/12/06 03:36:42;;;;;;;0.13;0.13;;;15.30;73.70;;;;;;4229251;28;20848;-40
2020/12/06 03:39:03;;;;;;;0.40;0.40;;;15.40;73.30;;;;;;4228952;28;20134;-40
2020/12/06 03:41:24;;;;;;;0.00;0.00;;;15.40;73.00;;;;;;4228851;28;20077;-41
2020/12/06 03:43:46;;;;;;;0.13;0.13;;;15.40;72.80;;;;;;4229041;28;20079;-40
2020/12/06 03:46:07;;;;;;;0.52;0.52;;;15.40;72.90;;;;;;4229060;28;20629;-40
2020/12/06 03:48:28;;;;;;;0.00;0.00;;;15.40;73.00;;;;;;4228834;28;20058;-41
2020/12/06 03:50:48;;;;;;;0.10;0.10;;;15.30;73.10;;;;;;4228723;28;20055;-40
2020/12/06 03:53:16;;;;;;;0.30;0.25;;;15.30;73.20;;;;;;4211889;28;20072;-40
2020/12/06 03:55:37;;;;;;;0.20;0.20;;;15.30;73.10;;;;;;4227805;28;20061;-40
2020/12/06 03:57:58;;;;;;;0.20;0.20;;;15.30;73.20;;;;;;4229383;28;20051;-40
2020/12/06 04:00:21;;;;;;;0.10;0.10;;;15.30;73.30;;;;;;4228766;28;20500;-40
2020/12/06 04:02:42;;;;;;;0.03;0.03;;;15.20;73.50;;;;;;4228754;28;20494;-40
2020/12/06 04:05:03;;;;;;;0.15;0.15;;;15.20;73.70;;;;;;4228573;28;20059;-42
2020/12/06 04:07:24;;;;;;;1.00;1.00;;;15.20;74.00;;;;;;4228743;28;20055;-40
2020/12/06 04:09:45;;;;;;;0.30;0.30;;;15.10;74.10;;;;;;4228947;28;20135;-44
2020/12/06 04:12:06;;;;;;;2.33;0.73;;;15.10;74.10;;;;;;4228425;28;20051;-40
2020/12/06 04:14:27;;;;;;;0.30;0.30;;;15.20;73.90;;;;;;4228298;28;20909;-40
2020/12/06 04:16:49;;;;;;;5.93;1.00;;;15.30;73.60;;;;;;4229145;28;20093;-40
2020/12/06 04:19:09;;;;;;;0.75;0.75;;;15.30;73.50;;;;;;4228274;28;20637;-40
2020/12/06 04:21:30;;;;;;;0.80;0.80;;;15.30;73.40;;;;;;4228600;28;20054;-41
2020/12/06 04:23:51;;;;;;;0.30;0.30;;;15.30;73.40;;;;;;4228830;28;20132;-40
2020/12/06 04:26:12;;;;;;;0.35;0.35;;;15.20;73.50;;;;;;4228674;28;20496;-40
2020/12/06 04:28:33;;;;;;;1.45;1.45;;;15.20;73.60;;;;;;4229160;28;20101;-40
2020/12/06 04:30:55;;;;;;;0.32;0.32;;;15.10;73.80;;;;;;4228931;28;20051;-40
2020/12/06 04:33:16;;;;;;;0.08;0.08;;;15.10;74.00;;;;;;4214739;28;20048;-40
2020/12/06 04:35:37;;;;;;;;;;;15.00;74.10;;;;;;4229846;28;20065;-40
2020/12/06 04:37:58;;;;;;;0.10;0.10;;;15.10;74.30;;;;;;4231461;28;19966;-40
2020/12/06 04:40:19;;;;;;;0.05;0.05;;;15.20;73.90;;;;;;4231717;28;20501;-40
2020/12/06 04:42:41;;;;;;;0.03;0.03;;;15.20;73.40;;;;;;4231391;28;20043;-40
2020/12/06 04:45:02;;;;;;;0.08;0.08;;;15.30;73.10;;;;;;4231238;28;20047;-40
2020/12/06 04:47:40;;;;;;;0.20;0.20;;;15.30;72.90;;;;;;4231356;28;20054;-40
2020/12/06 04:50:04;;;;;;;0.40;0.28;;;15.30;73.10;;;;;;4231466;28;20056;-40
2020/12/06 04:52:28;;;;;;;0.15;0.15;;;15.30;73.00;;;;;;4231040;28;20047;-40
2020/12/06 04:54:59;;;;;;;1.52;1.42;;;15.30;73.60;;;;;;4231121;28;20047;-40
2020/12/06 04:57:23;;;;;;;0.25;0.25;;;15.40;72.20;;;;;;4231709;28;20059;-40
2020/12/06 04:59:47;;;;;;;0.47;0.47;;;15.50;72.00;;;;;;4231427;28;20116;-40
2020/12/06 05:02:10;;;;;;;0.30;0.30;;;15.60;71.70;;;;;;4231214;28;20454;-40
2020/12/06 05:04:36;;;;;;;0.00;0.00;;;15.60;71.60;;;;;;4230908;28;20512;-40
2020/12/06 05:06:58;;;;;;;1.17;1.10;;;15.70;71.20;;;;;;4231080;28;20055;-40
2020/12/06 05:09:25;;;;;;;0.82;0.82;;;15.80;70.60;;;;;;4230933;28;20417;-41
2020/12/06 05:11:46;;;;;;;0.75;0.75;;;15.80;70.40;;;;;;4231226;28;20055;-41
2020/12/06 05:14:07;;;;;;;0.00;0.00;;;15.80;70.30;;;;;;4231107;28;20569;-41
2020/12/06 05:16:34;;;;;;;0.10;0.10;;;15.80;70.10;;;;;;4230762;28;20456;-40
2020/12/06 05:18:55;;;;;;;0.30;0.30;;;15.80;70.10;;;;;;4230467;28;20063;-40
2020/12/06 05:21:18;;;;;;;0.20;0.20;;;15.80;70.30;;;;;;4230749;28;20418;-41
2020/12/06 05:23:41;;;;;;;0.10;0.10;;;15.80;70.50;;;;;;4230826;28;20044;-40
2020/12/06 05:26:03;;;;;;;0.28;0.28;;;15.70;70.70;;;;;;4230643;28;20054;-40
2020/12/06 05:28:25;;;;;;;0.00;0.00;;;15.60;71.10;;;;;;4230450;28;20062;-40
2020/12/06 05:30:48;;;;;;;1.15;1.13;;;15.60;71.40;;;;;;4230536;28;20056;-40
2020/12/06 05:33:10;;;;;;;0.10;0.10;;;15.50;71.70;;;;;;4230519;28;20500;-40
2020/12/06 05:35:31;;;;;;;1.13;1.05;;;15.60;71.80;;;;;;4230907;28;20513;-40
2020/12/06 05:37:51;;;;;;;0.05;0.05;;;15.60;71.10;;;;;;4231052;28;20058;-40
2020/12/06 05:40:16;;;;;;;0.00;0.00;;;15.70;70.80;;;;;;4230544;28;20551;-41
2020/12/06 05:42:39;;;;;;;0.05;0.05;;;15.70;70.80;;;;;;4230468;28;20054;-41
2020/12/06 05:45:00;;;;;;;0.00;0.00;;;15.70;70.90;;;;;;4230247;28;20553;-40
2020/12/06 05:47:21;;;;;;;;;;;15.60;70.90;;;;;;4230846;28;20047;-41
2020/12/06 05:49:45;;;;;;;0.20;0.20;;;15.60;70.80;;;;;;4230075;28;20358;-41
2020/12/06 05:52:07;;;;;;;2.20;2.10;;;15.70;70.70;;;;;;4214851;28;20078;-40
2020/12/06 05:54:30;;;;;;;3.75;1.00;;;15.70;70.30;;;;;;4230096;28;20079;-41
2020/12/06 05:56:53;;;;;;;0.10;0.10;;;15.80;70.00;;;;;;4230217;28;20063;-40
2020/12/06 05:59:14;;;;;;;0.20;0.20;;;15.70;69.50;;;;;;4230722;28;20055;-40
2020/12/06 06:01:35;;;;;;;0.20;0.20;;;15.70;69.50;;;;;;4229934;28;20131;-41
2020/12/06 06:04:02;;;;;;;0.70;0.70;;;15.50;69.80;;;;;;4229594;28;20061;-43
2020/12/06 06:06:26;;;;;;;0.43;0.43;;;15.40;70.20;;;;;;4230665;28;20497;-43
2020/12/06 06:08:49;;;;;;;0.10;0.10;;;15.40;70.50;;;;;;4230093;28;20079;-44
2020/12/06 06:11:22;;;;;;;1.15;1.15;;;15.40;70.70;;;;;;4229879;28;20464;-41
2020/12/06 06:13:52;;;;;;;0.17;0.17;;;15.40;70.70;;;;;;4229722;28;20481;-41
2020/12/06 06:16:14;;;;;;;0.05;0.05;;;15.30;70.90;;;;;;4229754;28;20058;-41
2020/12/06 06:18:36;;;;;;;0.13;0.13;;;15.30;71.40;;;;;;4229703;28;20071;-41
2020/12/06 06:20:58;;;;;;;0.00;0.00;;;15.30;71.50;;;;;;4229902;28;20080;-41
2020/12/06 06:23:20;;;;;;;0.10;0.10;;;15.30;71.60;;;;;;4229547;28;20048;-41
2020/12/06 06:25:41;;;;;;;0.10;0.10;;;15.30;71.90;;;;;;4229797;28;20071;-41
2020/12/06 06:28:03;;;;;;;0.30;0.30;;;15.10;72.10;;;;;;4230050;28;20066;-41
2020/12/06 06:30:25;;;;;;;0.35;0.35;;;15.20;72.30;;;;;;4229966;28;20074;-41
2020/12/06 06:32:46;;;;;;;0.75;0.75;;;15.20;72.10;;;;;;4229326;28;20113;-40
2020/12/06 06:35:08;;;;;;;0.05;0.05;;;15.30;71.60;;;;;;4229239;28;20112;-41
2020/12/06 06:37:30;;;;;;;0.55;0.40;;;15.30;71.50;;;;;;4229577;28;20055;-40
2020/12/06 06:39:51;;;;;;;0.20;0.20;;;15.30;71.50;;;;;;4229975;28;20553;-41
2020/12/06 06:42:14;;;;;;;10.43;2.65;;;15.40;70.90;;;;;;4229789;28;20056;-41
2020/12/06 06:44:37;;;;;;;0.98;0.98;;;15.60;70.20;;;;;;4230300;28;20079;-41
2020/12/06 06:47:04;;;;;;;1.10;1.10;;;15.70;69.30;;;;;;4229425;28;20104;-41
2020/12/06 06:49:26;;;;;;;0.20;0.20;;;15.80;68.60;;;;;;4229220;28;20047;-41
2020/12/06 06:51:54;;;;;;;0.40;0.40;;;15.90;68.30;;;;;;4229317;28;20056;-40
2020/12/06 06:54:25;;;;;;;0.28;0.28;;;15.90;67.90;;;;;;4228736;28;20056;-40
2020/12/06 06:56:48;;;;;;;0.20;0.20;;;15.90;67.70;;;;;;4229274;28;20082;-40
2020/12/06 06:59:10;;;;;;;0.20;0.20;;;15.80;67.70;;;;;;4229072;28;20047;-42
2020/12/06 07:01:31;;;;;;;0.20;0.20;;;15.80;67.70;;;;;;4229022;28;20058;-40
2020/12/06 07:03:53;;;;;;;1.75;1.65;;;15.80;67.70;;;;;;4229135;28;20096;-41
2020/12/06 07:06:45;;;;;;;0.85;0.75;;;15.80;67.60;;;;;;4229740;28;20052;-41
2020/12/06 07:09:06;;;;;;;1.48;1.08;;;15.80;68.00;;;;;;4229000;28;20555;-41
2020/12/06 07:11:33;;;;;;;0.52;0.52;;;15.70;68.50;;;;;;4229112;28;20052;-41
2020/12/06 07:13:54;;;;;;;0.25;0.25;;;15.60;68.90;;;;;;4229700;28;20051;-41
2020/12/06 07:16:15;;;;;;;1.45;0.95;;;15.60;69.20;;;;;;4229162;28;20059;-41
2020/12/06 07:18:39;;;;;;;0.77;0.75;;;15.60;69.50;;;;;;4228788;28;20043;-41
2020/12/06 07:21:01;;;;;;;0.03;0.03;;;15.60;70.60;;;;;;4229448;28;20055;-41
2020/12/06 07:23:22;;;;;;;0.28;0.28;;;15.60;71.00;;;;;;4229071;28;20063;-40
2020/12/06 07:25:43;;;;;;;0.08;0.08;;;15.60;70.70;;;;;;4229035;28;20055;-40
2020/12/06 07:28:04;;;;;;;0.25;0.25;;;15.70;70.40;;;;;;4229117;28;20425;-41
2020/12/06 07:30:26;;;;;;;0.40;0.40;;;15.70;70.20;;;;;;4228741;28;20059;-41
2020/12/06 07:32:48;;;;;;;0.10;0.10;;;15.80;69.80;;;;;;4222502;28;20517;-41
2020/12/06 07:35:09;;;;;;;;;;;16.00;69.10;;;;;;4227722;28;20079;-41
2020/12/06 07:37:31;;;;;;;0.90;0.90;;;16.20;68.50;;;;;;4227743;28;19930;-41
2020/12/06 07:39:52;;;;;;;0.20;0.20;;;16.30;68.00;;;;;;4213881;28;20510;-42
2020/12/06 07:42:18;;;;;;;0.65;0.65;;;16.30;68.00;;;;;;4229092;28;20459;-41
2020/12/06 07:44:46;;;;;;;0.03;0.03;;;16.30;67.90;;;;;;4228524;28;20152;-41
2020/12/06 07:47:06;;;;;;;0.65;0.65;;;16.30;68.20;;;;;;4228888;28;20126;-42
2020/12/06 07:49:27;;;;;;;3.40;1.38;;;16.20;68.50;;;;;;4228540;28;20052;-41
2020/12/06 07:51:51;;;;;;;0.55;0.55;;;16.10;68.80;;;;;;4227956;28;20047;-41
2020/12/06 07:54:16;;;;;;;0.13;0.13;;;16.00;69.40;;;;;;4226327;28;20048;-41
2020/12/06 07:56:38;;;;;;;0.43;0.43;;;16.00;69.60;;;;;;4228663;28;20055;-43
2020/12/06 07:59:18;;;;;;;1.98;0.93;;;16.00;69.40;;;;;;4229134;28;20043;-45
2020/12/06 08:01:41;;;;;;;1.05;1.00;;;16.10;69.30;;;;;;4213415;28;20059;-41
2020/12/06 08:04:13;;;;;;;0.13;0.13;;;16.10;69.30;;;;;;4228440;28;20128;-41
2020/12/06 08:06:35;;;;;;;0.32;0.32;;;16.10;69.50;;;;;;4230072;28;20054;-41
2020/12/06 08:08:58;;;;;;;0.30;0.30;;;16.00;69.90;;;;;;4232133;28;20043;-42
2020/12/06 08:11:29;;;;;;;0.00;0.00;;;15.90;70.10;;;;;;4232243;28;20502;-41
2020/12/06 08:13:51;;;;;;;0.35;0.35;;;15.80;70.60;;;;;;4232087;28;20409;-41
2020/12/06 08:16:12;;;;;;;0.47;0.47;;;15.80;70.90;;;;;;4231753;28;20055;-41
2020/12/06 08:18:33;;;;;;;0.10;0.10;;;15.70;71.40;;;;;;4231640;28;20055;-41
2020/12/06 08:20:57;;;;;;;0.25;0.25;;;15.60;71.80;;;;;;4232017;28;20051;-41
2020/12/06 08:23:29;;;;;;;0.50;0.50;;;15.50;72.40;;;;;;4231649;28;20529;-42
2020/12/06 08:25:50;;;;;;;0.52;0.52;;;15.60;72.30;;;;;;4231723;28;20135;-42
2020/12/06 08:28:19;;;;;;;0.85;0.85;;;15.80;71.60;;;;;;4232144;28;20055;-41
2020/12/06 08:30:41;;;;;;;0.25;0.25;;;15.90;70.80;;;;;;4216069;28;20048;-41
2020/12/06 08:33:04;;;;;;;0.10;0.10;;;16.00;70.30;;;;;;4231030;28;20048;-41
2020/12/06 08:35:40;;;;;;;0.70;0.68;;;16.00;70.20;;;;;;4231803;28;20152;-42
2020/12/06 08:38:13;;;;;;;0.43;0.43;;;16.00;70.30;;;;;;4215908;28;20516;-41
2020/12/06 08:40:35;;;;;;;0.52;0.52;;;15.90;70.50;;;;;;4230969;28;20075;-41
2020/12/06 08:42:57;;;;;;;0.00;0.00;;;15.80;70.80;;;;;;4224656;28;20059;-41
2020/12/06 08:45:24;;;;;;;1.27;1.20;;;15.80;71.30;;;;;;4231382;28;20062;-42
2020/12/06 08:47:46;;;;;;;0.73;0.45;;;15.70;71.70;;;;;;4231291;28;20112;-41
2020/12/06 08:50:08;;;;;;;0.52;0.52;;;15.60;72.20;;;;;;4231644;28;20546;-41
2020/12/06 08:52:29;;;;;;;0.30;0.30;;;15.50;72.50;;;;;;4231332;28;20059;-41
2020/12/06 08:54:50;;;;;;;0.00;0.00;;;15.40;72.90;;;;;;4231080;28;20123;-41
2020/12/06 08:57:14;;;;;;;1.20;1.20;;;15.30;73.40;;;;;;4214248;28;20066;-41
2020/12/06 08:59:37;;;;;;;0.40;0.40;;;15.20;73.80;;;;;;4214463;28;20048;-40
2020/12/06 09:01:59;;;;;;;19.75;2.13;;;15.20;74.30;;;;;;4214413;28;20047;-41
2020/12/06 09:04:21;;;;;;;0.95;0.95;;;15.20;74.40;;;;;;4214314;28;20391;-41
2020/12/06 09:06:42;;;;;;;1.48;0.60;;;15.30;74.00;;;;;;4229694;28;20059;-42
2020/12/06 09:09:03;;;;;;;;;;;15.40;73.80;;;;;;4229907;28;20094;-41
2020/12/06 09:11:24;;;;;;;0.45;0.45;;;15.40;73.60;;;;;;4230762;28;20003;-41
2020/12/06 09:13:45;;;;;;;4.90;3.88;;;15.50;73.20;;;;;;4230642;28;20052;-41
2020/12/06 09:16:09;;;;;;;0.00;0.00;;;15.50;73.00;;;;;;4230940;28;20055;-41
2020/12/06 09:18:31;;;;;;;1.75;0.88;;;15.60;72.70;;;;;;4224373;28;20063;-41
2020/12/06 09:20:52;;;;;;;0.15;0.15;;;15.60;72.70;;;;;;4214084;28;20056;-41
2020/12/06 09:23:13;;;;;;;0.10;0.10;;;15.60;72.80;;;;;;4221796;28;20044;-41
2020/12/06 09:25:35;;;;;;;0.10;0.10;;;15.50;72.90;;;;;;4230963;28;20079;-41
2020/12/06 09:27:56;;;;;;;1.00;1.00;;;15.50;73.10;;;;;;4230612;28;20055;-42
2020/12/06 09:30:17;;;;;;;0.40;0.40;;;15.40;73.40;;;;;;4230721;28;20056;-42
2020/12/06 09:32:38;;;;;;;0.63;0.63;;;15.60;73.20;;;;;;4230436;28;20052;-41
2020/12/06 09:35:00;;;;;;;0.20;0.20;;;16.10;71.50;;;;;;4230370;28;20054;-41
2020/12/06 09:37:21;;;;;;;2.30;0.47;;;16.70;68.80;;;;;;4230508;28;20059;-41
2020/12/06 09:39:41;;;;;;;0.20;0.20;;;17.30;66.10;;;;;;4230643;28;20058;-42
2020/12/06 09:42:03;;;;;;;3.00;2.25;;;17.90;63.80;;;;;;4229070;28;20055;-42
2020/12/06 09:44:24;;;;;;;0.10;0.10;;;18.50;61.50;;;;;;4230443;28;20051;-50
2020/12/06 09:46:45;;;;;;;0.10;0.10;;;19.10;59.30;;;;;;4230649;28;20546;-45
2020/12/06 09:49:09;;;;;;;0.40;0.40;;;19.70;57.50;;;;;;4230252;28;20052;-43
2020/12/06 09:51:31;;;;;;;0.32;0.32;;;20.30;55.70;;;;;;4230653;28;20058;-42
2020/12/06 09:53:52;;;;;;;0.32;0.32;;;21.00;53.90;;;;;;4230397;28;20497;-42
2020/12/06 09:56:16;;;;;;;0.05;0.05;;;21.50;52.50;;;;;;4230083;28;20498;-42
2020/12/06 09:58:37;;;;;;;1.13;0.98;;;22.00;51.40;;;;;;4224712;28;20051;-42
2020/12/06 10:00:58;;;;;;;0.52;0.52;;;22.20;51.00;;;;;;4230155;28;20085;-41
2020/12/06 10:03:21;;;;;;;0.43;0.43;;;22.40;50.60;;;;;;4229845;28;20112;-41
2020/12/06 10:05:43;;;;;;;0.75;0.68;;;22.40;50.60;;;;;;4219502;28;20051;-41
2020/12/06 10:08:07;;;;;;;0.68;0.68;;;22.20;50.80;;;;;;4229764;28;20147;-42
2020/12/06 10:10:28;;;;;;;0.30;0.30;;;22.00;51.60;;;;;;4229762;28;20130;-42
2020/12/06 10:12:49;;;;;;;0.68;0.40;;;21.70;52.30;;;;;;4229981;28;20421;-42
2020/12/06 10:15:10;;;;;;;0.10;0.10;;;21.30;53.20;;;;;;4230218;28;20128;-41
2020/12/06 10:17:32;;;;;;;1.50;1.40;;;21.00;54.10;;;;;;4229682;28;20075;-41
2020/12/06 10:19:54;;;;;;;1.00;0.90;;;20.60;55.00;;;;;;4227126;28;20075;-42
2020/12/06 10:22:18;;;;;;;0.00;0.00;;;20.30;55.90;;;;;;4238160;27;20051;-42
2020/12/06 10:24:50;;;;;;;0.57;0.57;;;20.20;56.40;;;;;;4197867;28;20052;-41
2020/12/06 10:27:12;;;;;;;0.50;0.50;;;20.10;56.60;;;;;;4224289;28;20051;-41
2020/12/06 10:29:35;;;;;;;0.35;0.35;;;20.20;56.50;;;;;;4229030;28;20052;-42
2020/12/06 10:32:00;;;;;;;0.38;0.38;;;20.30;56.40;;;;;;4214245;28;20063;-42
2020/12/06 10:34:23;;;;;;;0.38;0.38;;;20.30;56.10;;;;;;4228325;28;20101;-41
2020/12/06 10:36:50;;;;;;;0.45;0.45;;;20.40;55.90;;;;;;4229594;28;20047;-42
2020/12/06 10:39:12;;;;;;;0.73;0.40;;;20.50;55.60;;;;;;4229239;28;20081;-43
2020/12/06 10:41:37;;;;;;;1.98;1.85;;;20.50;55.30;;;;;;4229628;28;20625;-42
2020/12/06 10:44:01;;;;;;;0.47;0.30;;;20.60;55.10;;;;;;4215262;28;20058;-42
2020/12/06 10:46:25;;;;;;;0.47;0.47;;;20.70;55.00;;;;;;4229633;28;20063;-41
2020/12/06 10:48:46;;;;;;;1.15;1.15;;;20.70;54.90;;;;;;4229311;28;20782;-42
2020/12/06 10:51:07;;;;;;;0.80;0.68;;;20.70;54.80;;;;;;4229381;28;20047;-42
2020/12/06 10:53:28;;;;;;;0.38;0.38;;;20.70;54.90;;;;;;4229662;28;20684;-41
2020/12/06 10:55:50;;;;;;;0.20;0.20;;;20.60;55.10;;;;;;4229470;28;20618;-42
2020/12/06 10:58:12;;;;;;;3.30;0.90;;;20.60;55.20;;;;;;4213564;28;20052;-42
2020/12/06 11:00:34;;;;;;;7.72;1.75;;;20.60;55.20;;;;;;4229305;28;20463;-42
2020/12/06 11:02:55;;;;;;;0.55;0.55;;;20.50;55.30;;;;;;4229020;28;20047;-42
2020/12/06 11:05:16;;;;;;;0.75;0.75;;;20.50;55.40;;;;;;4228719;28;20044;-43
2020/12/06 11:07:37;;;;;;;0.10;0.10;;;20.40;55.40;;;;;;4229401;28;20063;-41
2020/12/06 11:09:58;;;;;;;0.00;0.00;;;20.40;55.50;;;;;;4229366;28;20047;-42
2020/12/06 11:12:19;;;;;;;0.57;0.57;;;20.40;55.70;;;;;;4197237;28;20485;-42
2020/12/06 11:14:41;;;;;;;0.22;0.22;;;20.40;55.70;;;;;;4221376;28;20105;-42
2020/12/06 11:17:02;;;;;;;0.10;0.10;;;20.30;55.80;;;;;;4228905;28;20063;-46
2020/12/06 11:19:23;;;;;;;;;;;20.10;56.30;;;;;;4229438;28;20062;-42
2020/12/06 11:21:44;;;;;;;0.15;0.15;;;20.00;56.80;;;;;;4229035;28;20305;-42
2020/12/06 11:24:05;;;;;;;;;;;19.90;56.90;;;;;;4229212;28;20058;-42
2020/12/06 11:26:26;;;;;;;0.30;0.22;;;19.90;56.90;;;;;;4229110;28;19920;-42
2020/12/06 11:28:47;;;;;;;0.28;0.28;;;20.00;56.70;;;;;;4228744;28;20051;-45
2020/12/06 11:31:10;;;;;;;0.65;0.65;;;20.00;56.60;;;;;;4229117;28;20113;-44
2020/12/06 11:33:30;;;;;;;0.13;0.13;;;20.10;56.40;;;;;;4229040;28;20055;-42
2020/12/06 11:35:51;;;;;;;0.17;0.17;;;20.20;56.10;;;;;;4228896;28;20066;-42
2020/12/06 11:38:12;;;;;;;0.25;0.25;;;20.30;55.80;;;;;;4229077;28;20051;-43
2020/12/06 11:40:33;;;;;;;0.00;0.00;;;20.40;55.50;;;;;;4230329;28;20510;-42
2020/12/06 11:42:54;;;;;;;1.42;1.30;;;20.50;55.30;;;;;;4232506;28;20059;-41
2020/12/06 11:45:15;;;;;;;0.50;0.50;;;20.60;55.10;;;;;;4232475;28;20055;-42
2020/12/06 11:47:37;;;;;;;2.22;2.08;;;20.70;55.00;;;;;;4232003;28;20047;-41
2020/12/06 11:49:59;;;;;;;1.25;1.25;;;20.70;55.00;;;;;;4231805;28;20043;-42
2020/12/06 11:52:20;;;;;;;5.50;2.50;;;20.70;55.10;;;;;;4232426;28;20051;-42
2020/12/06 11:54:44;;;;;;;1.15;1.15;;;20.70;55.10;;;;;;4232332;28;20054;-41
2020/12/06 11:57:05;;;;;;;12.63;2.33;;;20.60;55.40;;;;;;4232234;28;20498;-42
2020/12/06 11:59:26;;;;;;;2.45;2.35;;;20.50;55.70;;;;;;4232251;28;20051;-42
2020/12/06 12:01:47;;;;;;;2.35;1.45;;;20.40;56.10;;;;;;4232022;28;20050;-41
2020/12/06 12:04:10;;;;;;;0.88;0.88;;;20.20;56.60;;;;;;4232013;28;20051;-41
2020/12/06 12:06:31;;;;;;;2.25;2.15;;;20.00;57.30;;;;;;4231931;28;20425;-42
2020/12/06 12:08:52;;;;;;;1.38;1.20;;;19.80;57.60;;;;;;4231928;28;20047;-41
2020/12/06 12:11:13;;;;;;;2.67;2.53;;;19.80;57.80;;;;;;4231656;28;20097;-42
2020/12/06 12:13:33;;;;;;;2.05;1.92;;;19.80;57.90;;;;;;4231892;28;20083;-43
2020/12/06 12:15:56;;;;;;;2.90;2.30;;;19.90;58.00;;;;;;4215206;28;20055;-43
2020/12/06 12:18:16;;;;;;;0.80;0.80;;;19.80;57.90;;;;;;4227228;28;20048;-42
2020/12/06 12:20:38;;;;;;;2.13;2.03;;;19.90;57.90;;;;;;4232049;28;20044;-43
2020/12/06 12:23:00;;;;;;;1.42;1.42;;;19.90;57.70;;;;;;4231998;28;20078;-42